createdAt,value
2022-11-08T00:01:59.236Z,92465.34
2022-11-08T00:04:31.855Z,92457.31
2022-11-08T00:07:22.386Z,92457.31
2022-11-08T00:10:12.869Z,92460.66
2022-11-08T00:13:03.360Z,92462.25
2022-11-08T00:15:37.764Z,92461.47
2022-11-08T00:18:10.117Z,92464.84
2022-11-08T00:20:42.872Z,92468.22
2022-11-08T00:23:15.290Z,92461.19
2022-11-08T00:25:53.027Z,92454.72
2022-11-08T00:28:25.388Z,92463.53
2022-11-08T00:30:58.414Z,92455.72
2022-11-08T00:33:30.789Z,92453.31
2022-11-08T00:36:04.146Z,92459.44
2022-11-08T00:38:36.542Z,92458.09
2022-11-08T00:41:09.005Z,92449.56
2022-11-08T00:43:41.376Z,92456.59
2022-11-08T00:46:14.407Z,92451.31
2022-11-08T00:48:46.735Z,92462.19
2022-11-08T00:51:19.185Z,92452.59
2022-11-08T00:53:51.580Z,92452.31
2022-11-08T00:56:24.418Z,92457.59
2022-11-08T00:58:57.962Z,92459.44
2022-11-08T01:01:31.136Z,92458.84
2022-11-08T01:04:03.677Z,92455.75
2022-11-08T01:06:36.001Z,92462.72
2022-11-08T01:09:08.483Z,92458.59
2022-11-08T01:11:45.817Z,92463.00
2022-11-08T01:14:18.334Z,92459.66
2022-11-08T01:16:51.613Z,92459.06
2022-11-08T01:19:23.953Z,92452.84
2022-11-08T01:21:56.285Z,92450.22
2022-11-08T01:24:28.674Z,92452.53
2022-11-08T01:27:01.002Z,92454.44
2022-11-08T01:29:33.469Z,92453.59
2022-11-08T01:32:06.493Z,92457.47
2022-11-08T01:34:38.782Z,92454.16
2022-11-08T01:37:11.097Z,92450.34
2022-11-08T01:39:43.367Z,92454.22
2022-11-08T01:42:15.758Z,92446.63
2022-11-08T01:44:58.378Z,92455.91
2022-11-08T01:47:31.384Z,92444.94
2022-11-08T01:50:07.362Z,92447.03
2022-11-08T01:52:44.585Z,92442.63
2022-11-08T01:55:21.150Z,92451.97
2022-11-08T01:57:58.590Z,92457.69
2022-11-08T02:00:31.047Z,92458.38
2022-11-08T02:03:07.015Z,92456.81
2022-11-08T02:05:40.205Z,92462.47
2022-11-08T02:08:20.176Z,92453.66
2022-11-08T02:10:53.879Z,92459.84
2022-11-08T02:13:28.758Z,92453.38
2022-11-08T02:16:01.345Z,92456.75
2022-11-08T02:18:34.406Z,92461.56
2022-11-08T02:21:14.462Z,92463.22
2022-11-08T02:23:48.105Z,92465.03
2022-11-08T02:26:24.685Z,92464.19
2022-11-08T02:28:57.100Z,92464.13
2022-11-08T02:31:29.447Z,92462.31
2022-11-08T02:34:01.805Z,92464.91
2022-11-08T02:36:34.238Z,92462.19
2022-11-08T02:39:07.261Z,92472.31
2022-11-08T02:41:39.553Z,92467.88
2022-11-08T02:44:11.829Z,92463.53
2022-11-08T02:46:44.171Z,92462.47
2022-11-08T02:49:16.537Z,92463.47
2022-11-08T02:51:51.034Z,92457.75
2022-11-08T02:54:24.461Z,92459.81
2022-11-08T02:56:56.767Z,92455.13
2022-11-08T02:59:29.097Z,92455.88
2022-11-08T03:02:01.468Z,92461.25
2022-11-08T03:04:33.921Z,92460.69
2022-11-08T03:07:06.249Z,92454.50
2022-11-08T03:09:39.294Z,92458.38
2022-11-08T03:12:11.629Z,92460.75
2022-11-08T03:14:44.003Z,92461.72
2022-11-08T03:17:16.355Z,92456.25
2022-11-08T03:19:48.657Z,92461.41
2022-11-08T03:22:21.035Z,92467.63
2022-11-08T03:24:54.063Z,92465.28
2022-11-08T03:27:26.448Z,92464.22
2022-11-08T03:29:58.741Z,92468.09
2022-11-08T03:32:31.043Z,92463.16
2022-11-08T03:35:03.635Z,92470.91
2022-11-08T03:37:36.023Z,92468.38
2022-11-08T03:40:10.974Z,92473.31
2022-11-08T03:42:43.363Z,92466.97
2022-11-08T03:45:16.165Z,92466.91
2022-11-08T03:47:48.559Z,92473.72
2022-11-08T03:50:20.990Z,92477.47
2022-11-08T03:52:55.113Z,92472.66
2022-11-08T03:55:28.716Z,92472.59
2022-11-08T03:58:01.069Z,92469.44
2022-11-08T04:00:33.736Z,92469.78
2022-11-08T04:03:06.309Z,92471.75
2022-11-08T04:05:38.638Z,92473.81
2022-11-08T04:08:11.047Z,92471.44
2022-11-08T04:10:44.125Z,92459.94
2022-11-08T04:13:34.452Z,92468.53
2022-11-08T04:16:07.693Z,92468.63
2022-11-08T04:18:58.365Z,92465.72
2022-11-08T04:21:30.723Z,92465.44
2022-11-08T04:24:03.416Z,92457.13
2022-11-08T04:26:36.428Z,92451.41
2022-11-08T04:29:09.586Z,92449.59
2022-11-08T04:31:42.108Z,92444.09
2022-11-08T04:34:14.511Z,92446.41
2022-11-08T04:36:46.954Z,92445.94
2022-11-08T04:39:19.328Z,92445.66
2022-11-08T04:41:53.753Z,92449.09
2022-11-08T04:44:28.845Z,92447.53
2022-11-08T04:47:01.190Z,92458.47
2022-11-08T04:49:33.522Z,92457.88
2022-11-08T04:52:05.913Z,92461.56
2022-11-08T04:54:38.274Z,92458.75
2022-11-08T04:57:11.611Z,92453.16
2022-11-08T04:59:44.010Z,92474.28
2022-11-08T05:02:16.436Z,92471.41
2022-11-08T05:04:48.903Z,92473.44
2022-11-08T05:07:21.286Z,92468.50
2022-11-08T05:09:58.724Z,92475.00
2022-11-08T05:12:34.302Z,92467.19
2022-11-08T05:15:08.157Z,92473.31
2022-11-08T05:17:40.593Z,92467.34
2022-11-08T05:20:30.853Z,92476.97
2022-11-08T05:23:21.860Z,92476.16
2022-11-08T05:25:55.341Z,92461.09
2022-11-08T05:28:28.368Z,92470.81
2022-11-08T05:31:01.131Z,92472.09
2022-11-08T05:33:33.536Z,92477.03
2022-11-08T05:36:08.234Z,92471.88
2022-11-08T05:38:40.974Z,92472.88
2022-11-08T05:41:15.470Z,92471.50
2022-11-08T05:43:49.886Z,92466.75
2022-11-08T05:46:23.143Z,92462.88
2022-11-08T05:48:55.675Z,92471.50
2022-11-08T05:51:28.262Z,92455.34
2022-11-08T05:54:00.596Z,92477.66
2022-11-08T05:56:33.051Z,92485.56
2022-11-08T05:59:06.122Z,92491.53
2022-11-08T06:01:38.532Z,92495.91
2022-11-08T06:04:10.931Z,92503.41
2022-11-08T06:06:43.356Z,92502.50
2022-11-08T06:09:15.707Z,92504.28
2022-11-08T06:11:48.579Z,92504.19
2022-11-08T06:14:21.793Z,92505.75
2022-11-08T06:16:54.179Z,92512.50
2022-11-08T06:19:26.763Z,92509.91
2022-11-08T06:21:59.210Z,92510.06
2022-11-08T06:24:31.679Z,92517.81
2022-11-08T06:27:04.160Z,92514.84
2022-11-08T06:29:37.250Z,92522.59
2022-11-08T06:32:09.923Z,92522.25
2022-11-08T06:34:45.306Z,92528.94
2022-11-08T06:37:17.701Z,92525.28
2022-11-08T06:39:50.106Z,92533.31
2022-11-08T06:42:22.465Z,92533.72
2022-11-08T06:44:55.526Z,92534.66
2022-11-08T06:47:27.930Z,92533.53
2022-11-08T06:50:00.293Z,92535.59
2022-11-08T06:52:32.673Z,92536.53
2022-11-08T06:55:05.466Z,92535.19
2022-11-08T06:57:37.857Z,92536.13
2022-11-08T07:00:12.539Z,92537.59
2022-11-08T07:02:45.055Z,92536.44
2022-11-08T07:05:17.677Z,92540.88
2022-11-08T07:07:51.708Z,92543.56
2022-11-08T07:10:27.568Z,92543.22
2022-11-08T07:13:01.393Z,92545.16
2022-11-08T07:15:35.618Z,92550.44
2022-11-08T07:18:10.033Z,92554.09
2022-11-08T07:20:43.368Z,92535.41
2022-11-08T07:23:15.745Z,92548.69
2022-11-08T07:25:48.084Z,92549.81
2022-11-08T07:28:20.758Z,92538.31
2022-11-08T07:30:57.921Z,92545.09
2022-11-08T07:33:30.366Z,92546.56
2022-11-08T07:36:03.318Z,92555.19
2022-11-08T07:38:35.733Z,92551.50
2022-11-08T07:41:09.501Z,92549.38
2022-11-08T07:43:41.877Z,92557.31
2022-11-08T07:46:22.150Z,92558.56
2022-11-08T07:48:54.430Z,92552.97
2022-11-08T07:51:26.768Z,92556.44
2022-11-08T07:54:02.815Z,92557.72
2022-11-08T07:56:35.626Z,92554.22
2022-11-08T07:59:08.002Z,92557.81
2022-11-08T08:01:41.179Z,92546.00
2022-11-08T08:04:13.585Z,92547.56
2022-11-08T08:06:45.942Z,92550.56
2022-11-08T08:09:18.410Z,92546.03
2022-11-08T08:11:50.733Z,92542.63
2022-11-08T08:14:23.193Z,92549.69
2022-11-08T08:16:56.718Z,92550.56
2022-11-08T08:19:29.076Z,92550.38
2022-11-08T08:22:01.566Z,92557.63
2022-11-08T08:24:33.947Z,92549.13
2022-11-08T08:27:06.392Z,92551.31
2022-11-08T08:29:38.738Z,92556.97
2022-11-08T08:32:11.751Z,92555.88
2022-11-08T08:34:44.140Z,92558.22
2022-11-08T08:37:16.851Z,92553.56
2022-11-08T08:39:49.251Z,92559.66
2022-11-08T08:42:21.718Z,92560.25
2022-11-08T08:44:54.625Z,92557.53
2022-11-08T08:47:28.022Z,92561.69
2022-11-08T08:50:00.409Z,92565.84
2022-11-08T08:52:32.745Z,92570.03
2022-11-08T08:55:06.037Z,92566.63
2022-11-08T08:57:38.415Z,92555.78
2022-11-08T09:03:12.786Z,92566.53
2022-11-08T09:05:45.965Z,92561.22
2022-11-08T09:08:18.289Z,92560.91
2022-11-08T09:10:53.439Z,92561.88
2022-11-08T09:13:27.135Z,92562.19
2022-11-08T09:16:01.091Z,92559.69
2022-11-08T09:18:34.222Z,92563.53
2022-11-08T09:21:06.821Z,92561.50
2022-11-08T09:23:40.834Z,92566.28
2022-11-08T09:26:13.230Z,92562.88
2022-11-08T09:28:45.606Z,92568.47
2022-11-08T09:31:17.971Z,92565.06
2022-11-08T09:33:51.074Z,92564.38
2022-11-08T09:36:23.482Z,92574.56
2022-11-08T09:38:55.820Z,92571.03
2022-11-08T09:42:00.631Z,92563.91
2022-11-08T09:44:48.396Z,92561.06
2022-11-08T09:47:24.592Z,92563.28
2022-11-08T09:50:03.067Z,92554.00
2022-11-08T09:52:35.597Z,92560.09
2022-11-08T09:55:19.200Z,92562.03
2022-11-08T09:58:01.398Z,92557.56
2022-11-08T10:00:37.165Z,92547.09
2022-11-08T10:03:14.998Z,92547.41
2022-11-08T10:06:00.123Z,92539.00
2022-11-08T10:08:35.601Z,92541.03
2022-11-08T10:11:20.472Z,92541.38
2022-11-08T10:14:07.995Z,92539.59
2022-11-08T10:16:48.487Z,92533.47
2022-11-08T10:19:53.586Z,92539.50
2022-11-08T10:22:37.402Z,92528.06
2022-11-08T10:25:19.406Z,92530.00
2022-11-08T10:27:55.803Z,92526.84
2022-11-08T10:30:33.571Z,92521.19
2022-11-08T10:33:15.892Z,92522.47
2022-11-08T10:36:00.574Z,92522.31
2022-11-08T10:38:39.376Z,92494.38
2022-11-08T10:41:19.593Z,92512.75
2022-11-08T10:43:56.334Z,92507.50
2022-11-08T10:46:41.461Z,92509.06
2022-11-08T10:49:22.711Z,92506.78
2022-11-08T10:51:56.858Z,92502.78
2022-11-08T10:54:47.262Z,92498.72
2022-11-08T10:57:24.557Z,92499.25
2022-11-08T11:00:15.441Z,92499.25
2022-11-08T11:02:51.012Z,92491.16
2022-11-08T11:05:28.498Z,92489.72
2022-11-08T11:08:16.371Z,92492.22
2022-11-08T11:10:49.666Z,92488.50
2022-11-08T11:13:23.327Z,92483.13
2022-11-08T11:16:02.395Z,92486.47
2022-11-08T11:18:36.966Z,92478.59
2022-11-08T11:21:11.340Z,92489.22
2022-11-08T11:23:45.995Z,92486.03
2022-11-08T11:26:28.649Z,92484.84
2022-11-08T11:29:26.862Z,92480.38
2022-11-08T11:32:21.113Z,92487.13
2022-11-08T11:34:56.042Z,92485.81
2022-11-08T11:37:35.729Z,92484.53
2022-11-08T11:40:18.890Z,92480.72
2022-11-08T11:43:01.521Z,92479.94
2022-11-08T11:45:42.567Z,92479.09
2022-11-08T11:48:17.600Z,92479.47
2022-11-08T11:50:50.607Z,92482.25
2022-11-08T11:53:26.281Z,92481.66
2022-11-08T11:56:29.561Z,92476.44
2022-11-08T11:59:31.153Z,92477.75
2022-11-08T12:02:33.893Z,92471.81
2022-11-08T12:05:25.130Z,92459.75
2022-11-08T12:08:11.560Z,92467.88
2022-11-08T12:11:03.208Z,92465.91
2022-11-08T12:13:53.987Z,92475.09
2022-11-08T12:16:36.936Z,92462.84
2022-11-08T12:19:28.209Z,92461.50
2022-11-08T12:22:09.716Z,92449.25
2022-11-08T12:24:52.437Z,92450.91
2022-11-08T12:27:33.879Z,92432.72
2022-11-08T12:30:11.694Z,92447.19
2022-11-08T12:33:12.754Z,92453.88
2022-11-08T12:35:58.685Z,92451.59
2022-11-08T12:38:37.609Z,92448.47
2022-11-08T12:41:23.082Z,92442.56
2022-11-08T12:44:20.003Z,92441.06
2022-11-08T12:47:08.170Z,92447.69
2022-11-08T12:49:55.140Z,92443.81
2022-11-08T12:52:42.454Z,92433.16
2022-11-08T12:55:23.661Z,92447.06
2022-11-08T12:57:58.998Z,92452.00
2022-11-08T13:00:33.631Z,92446.78
2022-11-08T13:03:27.482Z,92446.78
2022-11-08T13:06:07.862Z,92444.06
2022-11-08T13:08:46.443Z,92449.56
2022-11-08T13:11:23.745Z,92452.50
2022-11-08T13:13:59.662Z,92452.50
2022-11-08T13:16:38.589Z,92453.41
2022-11-08T13:19:27.146Z,92450.34
2022-11-08T13:22:00.223Z,92447.69
2022-11-08T13:24:50.056Z,92450.78
2022-11-08T13:27:32.821Z,92452.75
2022-11-08T13:30:35.268Z,92457.94
2022-11-08T13:33:14.880Z,92460.84
2022-11-08T13:35:51.878Z,92457.22
2022-11-08T13:38:35.864Z,92459.34
2022-11-08T13:41:16.085Z,92458.72
2022-11-08T13:43:50.408Z,92462.94
2022-11-08T13:46:44.658Z,92464.88
2022-11-08T13:49:19.050Z,92454.09
2022-11-08T13:52:30.129Z,92461.28
2022-11-08T13:55:03.372Z,92462.59
2022-11-08T13:57:57.762Z,92452.81
2022-11-08T14:00:43.552Z,92449.81
2022-11-08T14:03:55.643Z,92458.97
2022-11-08T14:06:33.172Z,92461.50
2022-11-08T14:09:20.272Z,92459.25
2022-11-08T14:12:02.118Z,92463.72
2022-11-08T14:14:48.961Z,92461.13
2022-11-08T14:17:42.617Z,92460.69
2022-11-08T14:20:27.193Z,92455.25
2022-11-08T14:23:11.769Z,92462.78
2022-11-08T14:25:48.250Z,92458.34
2022-11-08T14:28:24.188Z,92461.13
2022-11-08T14:30:58.222Z,92465.47
2022-11-08T14:33:31.654Z,92466.09
2022-11-08T14:36:06.599Z,92461.28
2022-11-08T14:38:47.327Z,92468.09
2022-11-08T14:41:24.958Z,92473.03
2022-11-08T14:44:00.271Z,92470.75
2022-11-08T14:46:35.265Z,92475.84
2022-11-08T14:49:09.676Z,92477.03
2022-11-08T14:51:42.978Z,92476.75
2022-11-08T14:54:17.554Z,92477.81
2022-11-08T14:56:49.956Z,92480.47
2022-11-08T14:59:24.111Z,92478.00
2022-11-08T15:01:57.106Z,92476.31
2022-11-08T15:04:31.442Z,92478.78
2022-11-08T15:07:08.708Z,92469.03
2022-11-08T15:09:41.209Z,92467.97
2022-11-08T15:12:16.881Z,92473.81
2022-11-08T15:14:55.113Z,92475.66
2022-11-08T15:17:31.116Z,92468.56
2022-11-08T15:20:27.402Z,92468.22
2022-11-08T15:22:59.810Z,92465.44
2022-11-08T15:25:34.185Z,92465.88
2022-11-08T15:28:15.985Z,92470.19
2022-11-08T15:30:55.662Z,92470.03
2022-11-08T15:33:36.130Z,92469.25
2022-11-08T15:36:13.740Z,92476.44
2022-11-08T15:38:49.062Z,92474.56
2022-11-08T15:41:34.894Z,92462.50
2022-11-08T15:44:17.740Z,92480.31
2022-11-08T15:46:52.039Z,92470.31
2022-11-08T15:49:26.268Z,92472.25
2022-11-08T15:51:58.652Z,92469.44
2022-11-08T15:54:31.050Z,92475.03
2022-11-08T15:57:05.081Z,92472.84
2022-11-08T15:59:37.530Z,92474.69
2022-11-08T16:02:13.656Z,92473.38
2022-11-08T16:04:46.049Z,92471.06
2022-11-08T16:07:18.585Z,92472.84
2022-11-08T16:09:51.023Z,92474.63
2022-11-08T16:12:23.401Z,92474.94
2022-11-08T16:14:57.179Z,92471.66
2022-11-08T16:17:30.242Z,92471.94
2022-11-08T16:20:03.290Z,92482.88
2022-11-08T16:22:35.744Z,92478.22
2022-11-08T16:25:08.773Z,92480.44
2022-11-08T16:27:41.678Z,92474.63
2022-11-08T16:30:16.143Z,92473.56
2022-11-08T16:32:49.187Z,92483.41
2022-11-08T16:35:21.688Z,92482.75
2022-11-08T16:37:54.149Z,92479.66
2022-11-08T16:40:26.625Z,92489.72
2022-11-08T16:42:58.999Z,92486.91
2022-11-08T16:46:03.337Z,92485.94
2022-11-08T16:48:27.239Z,92480.53
2022-11-08T16:51:01.288Z,92489.34
2022-11-08T16:53:36.021Z,92499.63
2022-11-08T16:56:08.617Z,92495.56
2022-11-08T16:58:41.847Z,92505.53
2022-11-08T17:01:18.531Z,92504.88
2022-11-08T17:03:51.611Z,92503.63
2022-11-08T17:06:24.051Z,92500.53
2022-11-08T17:08:56.597Z,92509.41
2022-11-08T17:11:29.012Z,92508.84
2022-11-08T17:14:01.878Z,92507.41
2022-11-08T17:16:34.287Z,92510.28
2022-11-08T17:19:07.316Z,92514.16
2022-11-08T17:21:46.758Z,92523.84
2022-11-08T17:24:21.891Z,92524.03
2022-11-08T17:26:54.613Z,92526.56
2022-11-08T17:29:26.984Z,92525.19
2022-11-08T17:31:59.377Z,92529.50
2022-11-08T17:34:32.390Z,92529.94
2022-11-08T17:37:05.062Z,92529.94
2022-11-08T17:39:37.401Z,92527.50
2022-11-08T17:42:09.818Z,92526.84
2022-11-08T17:44:42.155Z,92534.69
2022-11-08T17:47:14.643Z,92523.34
2022-11-08T17:49:47.758Z,92530.03
2022-11-08T17:52:20.664Z,92523.47
2022-11-08T17:54:53.316Z,92528.31
2022-11-08T17:57:26.840Z,92520.38
2022-11-08T17:59:59.257Z,92522.19
2022-11-08T18:02:33.289Z,92530.03
2022-11-08T18:05:07.120Z,92522.56
2022-11-08T18:07:39.730Z,92524.97
2022-11-08T18:10:12.468Z,92525.38
2022-11-08T18:12:44.888Z,92527.22
2022-11-08T18:15:17.484Z,92519.06
2022-11-08T18:17:49.958Z,92515.09
2022-11-08T18:20:22.999Z,92525.75
2022-11-08T18:22:55.397Z,92513.25
2022-11-08T18:25:27.965Z,92518.19
2022-11-08T18:28:00.430Z,92520.25
2022-11-08T18:30:33.164Z,92515.69
2022-11-08T18:33:05.557Z,92519.38
2022-11-08T18:35:38.835Z,92518.31
2022-11-08T18:38:12.530Z,92515.97
2022-11-08T18:40:45.154Z,92518.50
2022-11-08T18:43:17.727Z,92522.66
2022-11-08T18:45:50.406Z,92523.16
2022-11-08T18:48:22.866Z,92522.97
2022-11-08T18:50:55.881Z,92518.59
2022-11-08T18:53:28.338Z,92520.75
2022-11-08T18:56:00.723Z,92520.84
2022-11-08T18:58:33.623Z,92523.19
2022-11-08T19:01:06.801Z,92523.88
2022-11-08T19:03:39.242Z,92532.94
2022-11-08T19:06:12.390Z,92535.03
2022-11-08T19:08:44.821Z,92527.78
2022-11-08T19:11:20.693Z,92535.63
2022-11-08T19:13:53.176Z,92536.69
2022-11-08T19:16:25.531Z,92528.38
2022-11-08T19:18:57.929Z,92531.84
2022-11-08T19:21:33.578Z,92525.75
2022-11-08T19:24:10.125Z,92530.47
2022-11-08T19:26:42.635Z,92536.56
2022-11-08T19:29:15.049Z,92532.88
2022-11-08T19:31:47.457Z,92537.44
2022-11-08T19:34:20.094Z,92540.88
2022-11-08T19:36:56.116Z,92538.56
2022-11-08T19:39:29.386Z,92538.34
2022-11-08T19:42:01.813Z,92539.78
2022-11-08T19:44:34.235Z,92539.75
2022-11-08T19:47:06.634Z,92541.72
2022-11-08T19:49:39.047Z,92542.78
2022-11-08T19:52:12.185Z,92549.63
2022-11-08T19:54:45.122Z,92549.47
2022-11-08T19:57:17.660Z,92548.81
2022-11-08T19:59:50.489Z,92548.66
2022-11-08T20:02:22.888Z,92551.56
2022-11-08T20:04:55.285Z,92554.53
2022-11-08T20:07:28.351Z,92552.53
2022-11-08T20:10:00.872Z,92553.84
2022-11-08T20:12:33.322Z,92549.69
2022-11-08T20:15:07.074Z,92542.53
2022-11-08T20:17:39.444Z,92560.25
2022-11-08T20:20:12.304Z,92551.66
2022-11-08T20:22:48.083Z,92552.34
2022-11-08T20:25:21.521Z,92556.28
2022-11-08T20:27:53.956Z,92548.25
2022-11-08T20:30:26.669Z,92544.75
2022-11-08T20:32:59.058Z,92558.78
2022-11-08T20:35:34.487Z,92561.44
2022-11-08T20:38:07.539Z,92558.09
2022-11-08T20:40:40.037Z,92565.47
2022-11-08T20:43:12.679Z,92558.00
2022-11-08T20:45:46.706Z,92561.16
2022-11-08T20:48:19.720Z,92560.69
2022-11-08T20:50:55.690Z,92568.34
2022-11-08T20:53:31.805Z,92567.59
2022-11-08T20:56:07.015Z,92565.53
2022-11-08T20:58:40.499Z,92565.84
2022-11-08T21:01:14.926Z,92564.84
2022-11-08T21:03:47.628Z,92565.69
2022-11-08T21:06:21.908Z,92566.00
2022-11-08T21:09:02.665Z,92566.28
2022-11-08T21:11:40.178Z,92566.81
2022-11-08T21:14:12.563Z,92561.63
2022-11-08T21:17:14.521Z,92570.22
2022-11-08T21:19:37.309Z,92570.03
2022-11-08T21:22:15.603Z,92563.06
2022-11-08T21:24:48.730Z,92564.38
2022-11-08T21:27:24.649Z,92567.28
2022-11-08T21:29:59.463Z,92562.69
2022-11-08T21:32:32.821Z,92556.44
2022-11-08T21:35:05.933Z,92561.66
2022-11-08T21:37:38.325Z,92554.69
2022-11-08T21:40:11.702Z,92544.34
2022-11-08T21:42:48.551Z,92558.63
2022-11-08T21:45:21.320Z,92552.16
2022-11-08T21:47:54.751Z,92552.47
2022-11-08T21:50:27.047Z,92555.31
2022-11-08T21:52:59.857Z,92557.91
2022-11-08T21:55:33.762Z,92561.06
2022-11-08T21:58:06.117Z,92554.53
2022-11-08T22:00:50.056Z,92561.56
2022-11-08T22:03:22.516Z,92564.19
2022-11-08T22:05:54.823Z,92564.69
2022-11-08T22:08:27.577Z,92556.97
2022-11-08T22:11:00.596Z,92564.47
2022-11-08T22:13:32.985Z,92571.25
2022-11-08T22:16:05.983Z,92568.91
2022-11-08T22:21:40.260Z,92567.16
2022-11-08T22:24:16.368Z,92567.66
2022-11-08T22:26:50.841Z,92565.38
2022-11-08T22:29:23.285Z,92567.44
2022-11-08T22:31:55.917Z,92567.16
2022-11-08T22:34:28.285Z,92563.53
2022-11-08T22:37:00.635Z,92563.28
2022-11-08T22:39:33.058Z,92563.59
2022-11-08T22:42:06.130Z,92563.28
2022-11-08T22:44:38.617Z,92567.22
2022-11-08T22:47:11.002Z,92564.09
2022-11-08T22:49:45.104Z,92561.00
2022-11-08T22:52:17.593Z,92568.25
2022-11-08T22:54:49.959Z,92563.09
2022-11-08T22:57:22.951Z,92566.19
2022-11-08T22:59:55.244Z,92565.19
2022-11-08T23:02:32.739Z,92559.47
2022-11-08T23:05:05.601Z,92557.91
2022-11-08T23:07:38.116Z,92559.75
2022-11-08T23:10:10.859Z,92565.44
2022-11-08T23:13:02.080Z,92558.19
2022-11-08T23:15:53.343Z,92556.91
2022-11-08T23:18:27.141Z,92567.28
2022-11-08T23:21:17.814Z,92571.16
2022-11-08T23:24:08.200Z,92563.13
2022-11-08T23:26:58.654Z,92570.63
2022-11-08T23:29:50.031Z,92562.84
2022-11-08T23:32:22.485Z,92569.31
2022-11-08T23:34:54.973Z,92566.47
2022-11-08T23:37:27.742Z,92571.41
2022-11-08T23:40:18.258Z,92568.56
2022-11-08T23:43:20.711Z,92568.28
2022-11-08T23:45:54.480Z,92565.97
2022-11-08T23:48:26.913Z,92564.41
2022-11-08T23:50:59.835Z,92568.56
2022-11-08T23:53:33.833Z,92549.34
2022-11-08T23:56:07.474Z,92573.47
2022-11-08T23:58:39.881Z,92575.56
